Mott, North Dakota
Current Conditions -  °F | °C
As of 4:53 PM on Saturday 25 Oct 2014 (Local Time) from KHEI Reporting Station
Clear Clear  
Wind Chill: 62°   Ceiling: Unl
Heat Index: 62°   Visibility: 10mi
Dew Point: 31°   Wind: 15mph
Humidity: 31%   Direction: 140°SE
Pressure: 29.99"   Gusts: NA
Location:  46.37°N, 102.33°W
Report Text: KHEI 252253Z AUTO 14013KT 10SM CLR 17/M01 A2999 RMK AO2 SLP161 T01671006
Loading
Personal Weather Stations






























Interactive Weather Map
Tropical Storm Tracking
New forecast layout! Learn more

10-Day Weather Forecast

Advertisements
Track Severe Weather on mobile